Time;durP1;ratioP1;P1;durP2;ratioP2;P2;SDS_P1;SDS_P2;PMS_P1;PMS_P2;Temp;Humidity;BMP_temperature;BMP_pressure;BME280_temperature;BME280_humidity;BME280_pressure;Samples;Min_cycle;Max_cycle;Signal;HPM_P1;HPM_P2
2022/07/28 00:02:04;;;;;;;1.27;0.50;;;14.90;99.90;;;;;;5075270;28;20040;-76
2022/07/28 00:04:31;;;;;;;3.53;0.60;;;14.90;99.90;;;;;;5076419;28;20119;-76
2022/07/28 00:06:57;;;;;;;1.35;0.50;;;14.90;99.90;;;;;;5076421;28;20075;-76
2022/07/28 00:09:23;;;;;;;2.88;0.60;;;14.90;99.90;;;;;;5075269;28;20111;-76
2022/07/28 00:11:49;;;;;;;3.53;0.65;;;14.90;99.90;;;;;;5075226;28;20054;-76
2022/07/28 00:14:14;;;;;;;3.30;0.70;;;14.90;99.90;;;;;;5074985;28;20045;-76
2022/07/28 00:16:40;;;;;;;3.38;0.60;;;14.80;99.90;;;;;;5075286;28;20037;-76
2022/07/28 00:19:06;;;;;;;1.70;0.60;;;14.70;99.90;;;;;;5076253;28;20079;-76
2022/07/28 00:21:31;;;;;;;3.15;0.80;;;14.70;99.90;;;;;;5074889;28;20055;-76
2022/07/28 00:23:57;;;;;;;2.75;1.17;;;14.70;99.90;;;;;;5075774;28;20090;-76
2022/07/28 00:26:23;;;;;;;3.50;0.52;;;14.60;99.90;;;;;;5074739;28;20503;-76
2022/07/28 00:28:49;;;;;;;3.88;0.50;;;14.60;99.90;;;;;;5074998;28;20044;-76
2022/07/28 00:31:14;;;;;;;1.30;0.60;;;14.60;99.90;;;;;;5075994;28;20482;-76
2022/07/28 00:33:40;;;;;;;1.05;0.55;;;14.60;99.90;;;;;;5074693;28;20044;-76
2022/07/28 00:36:07;;;;;;;6.18;0.82;;;14.50;99.90;;;;;;5075904;28;20510;-76
2022/07/28 00:38:33;;;;;;;4.03;0.70;;;14.60;99.90;;;;;;5074481;28;20040;-76
2022/07/28 00:41:11;;;;;;;4.18;0.70;;;14.50;99.90;;;;;;5074473;28;20053;-76
2022/07/28 00:43:38;;;;;;;2.90;0.50;;;14.50;99.90;;;;;;5075926;28;20129;-76
2022/07/28 00:46:04;;;;;;;1.90;0.60;;;14.40;99.90;;;;;;5075778;28;20049;-76
2022/07/28 00:48:29;;;;;;;2.55;0.70;;;14.40;99.90;;;;;;5075639;28;20047;-76
2022/07/28 00:50:55;;;;;;;2.17;0.52;;;14.40;99.90;;;;;;5074771;28;20076;-76
2022/07/28 00:53:22;;;;;;;2.25;0.65;;;14.30;99.90;;;;;;5075651;28;20055;-76
2022/07/28 00:55:48;;;;;;;2.15;0.50;;;14.20;99.90;;;;;;5075740;28;20032;-76
2022/07/28 00:58:13;;;;;;;1.58;0.40;;;14.20;99.90;;;;;;5075499;28;20060;-76
2022/07/28 01:00:39;;;;;;;2.50;0.60;;;14.10;99.90;;;;;;5075225;28;20044;-76
2022/07/28 01:03:06;;;;;;;0.98;0.55;;;14.00;99.90;;;;;;5074374;28;20053;-76
2022/07/28 01:05:42;;;;;;;3.22;0.93;;;13.90;99.90;;;;;;5075308;28;20115;-76
2022/07/28 01:08:25;;;;;;;5.18;0.63;;;13.90;99.90;;;;;;5074234;28;20055;-76
2022/07/28 01:11:03;;;;;;;1.55;0.40;;;13.70;99.90;;;;;;5074109;28;20055;-76
2022/07/28 01:13:54;;;;;;;5.40;0.70;;;13.70;99.90;;;;;;5075237;28;20040;-76
2022/07/28 01:16:20;;;;;;;1.13;0.50;;;13.70;99.90;;;;;;5074646;28;20060;-76
2022/07/28 01:19:08;;;;;;;1.70;0.55;;;13.60;99.90;;;;;;5073947;28;20044;-76
2022/07/28 01:21:37;;;;;;;1.48;0.52;;;13.60;99.90;;;;;;5073833;28;20054;-76
2022/07/28 01:24:08;;;;;;;5.32;0.95;;;13.60;99.90;;;;;;5074486;28;20057;-76
2022/07/28 01:27:04;;;;;;;4.85;0.90;;;13.60;99.90;;;;;;5073489;28;20102;-76
2022/07/28 01:30:04;;;;;;;4.60;0.77;;;13.60;99.90;;;;;;5073802;28;20040;-76
2022/07/28 01:32:41;;;;;;;2.17;0.70;;;13.60;99.90;;;;;;5052253;28;20488;-76
2022/07/28 01:35:18;;;;;;;1.88;0.73;;;13.60;99.90;;;;;;5074816;28;20040;-76
2022/07/28 01:37:48;;;;;;;4.68;0.90;;;13.50;99.90;;;;;;5074772;28;20098;-76
2022/07/28 01:40:19;;;;;;;1.83;0.95;;;13.60;99.90;;;;;;5074626;28;20044;-76
2022/07/28 01:42:48;;;;;;;2.70;0.90;;;13.60;99.90;;;;;;5073350;28;20048;-76
2022/07/28 01:45:14;;;;;;;2.25;0.80;;;13.50;99.90;;;;;;5074941;28;20117;-76
2022/07/28 01:47:44;;;;;;;3.13;0.95;;;13.50;99.90;;;;;;5074521;28;20123;-76
2022/07/28 01:50:12;;;;;;;2.92;0.90;;;13.50;99.90;;;;;;5074235;28;20044;-76
2022/07/28 01:52:41;;;;;;;3.80;0.95;;;13.50;99.90;;;;;;5074456;28;20044;-76
2022/07/28 01:55:08;;;;;;;2.60;0.98;;;13.50;99.90;;;;;;5073084;28;20055;-76
2022/07/28 01:57:36;;;;;;;1.65;0.80;;;13.50;99.90;;;;;;5074977;28;20044;-76
2022/07/28 02:00:05;;;;;;;2.45;0.80;;;13.50;99.90;;;;;;5073204;28;20052;-76
2022/07/28 02:02:33;;;;;;;3.08;1.00;;;13.50;99.90;;;;;;5074006;28;20044;-76
2022/07/28 02:04:59;;;;;;;3.63;1.20;;;13.50;99.90;;;;;;5072828;28;20052;-76
2022/07/28 02:07:27;;;;;;;2.50;0.98;;;13.40;99.90;;;;;;5072859;28;20041;-76
2022/07/28 02:09:55;;;;;;;2.78;1.00;;;13.40;99.90;;;;;;5072862;28;20048;-76
2022/07/28 02:12:22;;;;;;;2.90;1.02;;;13.40;99.90;;;;;;5073794;28;20548;-76
2022/07/28 02:14:49;;;;;;;2.25;0.98;;;13.40;99.90;;;;;;5074081;28;20044;-76
2022/07/28 02:17:24;;;;;;;3.80;1.10;;;13.20;99.90;;;;;;5072769;28;20086;-76
2022/07/28 02:19:51;;;;;;;2.20;0.80;;;13.20;99.90;;;;;;5072801;28;20052;-76
2022/07/28 02:22:19;;;;;;;3.47;1.20;;;13.20;99.90;;;;;;5072761;28;20131;-76
2022/07/28 02:24:45;;;;;;;2.65;0.80;;;13.20;99.90;;;;;;5072457;28;20060;-76
2022/07/28 02:27:21;;;;;;;3.60;0.90;;;13.20;99.90;;;;;;5073915;28;20112;-76
2022/07/28 02:29:56;;;;;;;4.63;1.20;;;13.10;99.90;;;;;;5073939;28;20044;-76
2022/07/28 02:32:48;;;;;;;2.95;0.98;;;13.10;99.90;;;;;;5073981;28;20119;-76
2022/07/28 02:35:28;;;;;;;2.85;1.10;;;13.10;99.90;;;;;;5073614;28;20518;-76
2022/07/28 02:38:00;;;;;;;3.50;1.50;;;13.00;99.90;;;;;;5073734;28;20048;-76
2022/07/28 02:40:33;;;;;;;3.77;1.00;;;13.00;99.90;;;;;;5072793;28;20041;-76
2022/07/28 02:43:00;;;;;;;3.80;1.20;;;13.00;99.90;;;;;;5073777;28;20032;-76
2022/07/28 02:45:27;;;;;;;6.90;1.00;;;12.90;99.90;;;;;;5073422;28;20133;-76
2022/07/28 02:47:57;;;;;;;3.20;0.90;;;12.90;99.90;;;;;;5072291;28;20499;-76
2022/07/28 02:50:26;;;;;;;2.63;1.27;;;12.80;99.90;;;;;;5072445;28;20044;-76
2022/07/28 02:52:56;;;;;;;3.22;1.00;;;12.70;99.90;;;;;;5073599;28;20041;-76
2022/07/28 02:55:22;;;;;;;1.95;1.00;;;12.70;99.90;;;;;;5073685;28;20040;-76
2022/07/28 02:57:48;;;;;;;2.35;1.10;;;12.70;99.90;;;;;;5073521;28;20044;-76
2022/07/28 03:00:14;;;;;;;3.70;1.23;;;12.70;99.90;;;;;;5072121;28;20510;-76
2022/07/28 03:02:45;;;;;;;2.58;1.00;;;12.60;99.90;;;;;;5072142;28;20044;-76
2022/07/28 03:05:15;;;;;;;3.63;1.38;;;12.70;99.90;;;;;;5073514;28;20059;-76
2022/07/28 03:07:41;;;;;;;3.80;1.52;;;12.60;99.90;;;;;;5072214;28;20076;-76
2022/07/28 03:10:16;;;;;;;4.78;1.45;;;12.60;99.90;;;;;;5073410;28;20048;-76
2022/07/28 03:12:41;;;;;;;2.00;1.08;;;12.60;99.90;;;;;;5072541;28;20128;-76
2022/07/28 03:15:07;;;;;;;3.50;1.23;;;12.50;99.90;;;;;;5077285;28;20147;-76
2022/07/28 03:17:33;;;;;;;3.03;1.40;;;12.50;99.90;;;;;;5077636;28;20041;-75
2022/07/28 03:19:58;;;;;;;4.78;1.42;;;12.50;99.90;;;;;;5077383;28;20041;-76
2022/07/28 03:22:24;;;;;;;4.57;1.38;;;12.40;99.90;;;;;;5077051;28;20048;-76
2022/07/28 03:24:54;;;;;;;2.53;1.35;;;12.40;99.90;;;;;;5077096;28;20411;-76
2022/07/28 03:27:33;;;;;;;3.28;1.55;;;12.40;99.90;;;;;;5077238;28;20040;-76
2022/07/28 03:30:03;;;;;;;4.15;1.30;;;12.30;99.90;;;;;;5076972;28;20120;-76
2022/07/28 03:32:33;;;;;;;3.80;1.27;;;12.30;99.90;;;;;;5076334;28;20545;-76
2022/07/28 03:34:59;;;;;;;5.85;1.50;;;12.30;99.90;;;;;;5075853;28;20123;-75
2022/07/28 03:37:37;;;;;;;2.97;1.30;;;12.30;99.90;;;;;;5075060;28;20508;-76
2022/07/28 03:40:05;;;;;;;4.70;1.40;;;12.30;99.90;;;;;;5075292;28;20051;-76
2022/07/28 03:42:33;;;;;;;3.42;1.40;;;12.20;99.90;;;;;;5076864;28;20041;-76
2022/07/28 03:44:59;;;;;;;3.90;1.48;;;12.30;99.90;;;;;;5075282;28;20055;-76
2022/07/28 03:47:25;;;;;;;3.28;1.33;;;12.20;99.90;;;;;;5076509;28;20053;-76
2022/07/28 03:49:50;;;;;;;3.35;1.40;;;12.20;99.90;;;;;;5076399;28;20404;-76
2022/07/28 03:52:17;;;;;;;6.22;1.60;;;12.20;99.90;;;;;;5075483;28;20051;-76
2022/07/28 03:54:43;;;;;;;3.30;1.33;;;12.10;99.90;;;;;;5076669;28;20055;-76
2022/07/28 03:57:09;;;;;;;2.85;1.50;;;12.20;99.90;;;;;;5076613;28;20044;-76
2022/07/28 03:59:35;;;;;;;3.08;1.35;;;12.10;99.90;;;;;;5076351;28;20392;-76
2022/07/28 04:02:01;;;;;;;2.70;1.30;;;12.20;99.90;;;;;;5076137;28;20462;-76
2022/07/28 04:04:27;;;;;;;4.75;1.40;;;12.20;99.90;;;;;;5076381;28;20044;-76
2022/07/28 04:06:52;;;;;;;5.13;1.40;;;12.20;99.90;;;;;;5076193;28;20488;-76
2022/07/28 04:09:18;;;;;;;3.72;1.40;;;12.10;99.90;;;;;;5076386;28;20044;-76
2022/07/28 04:11:44;;;;;;;5.32;2.25;;;12.10;99.90;;;;;;5074854;28;20088;-76
2022/07/28 04:14:09;;;;;;;3.72;1.20;;;12.20;99.90;;;;;;5074783;28;20124;-76
2022/07/28 04:16:35;;;;;;;3.50;1.40;;;12.20;99.90;;;;;;5076299;28;20128;-76
2022/07/28 04:19:01;;;;;;;4.82;1.50;;;12.20;99.90;;;;;;5074958;28;20052;-76
2022/07/28 04:21:26;;;;;;;3.03;1.63;;;12.20;99.90;;;;;;5076171;28;20446;-76
2022/07/28 04:23:52;;;;;;;3.35;1.50;;;12.20;99.90;;;;;;5075295;28;20142;-76
2022/07/28 04:26:18;;;;;;;2.72;1.60;;;12.20;99.90;;;;;;5074972;28;20044;-76
2022/07/28 04:28:44;;;;;;;4.72;1.80;;;12.20;99.90;;;;;;5075912;28;20502;-76
2022/07/28 04:31:10;;;;;;;4.82;1.75;;;12.30;99.90;;;;;;5076095;28;20067;-76
2022/07/28 04:33:36;;;;;;;4.57;1.80;;;12.30;99.90;;;;;;5075624;28;20487;-76
2022/07/28 04:36:02;;;;;;;3.90;1.70;;;12.40;99.90;;;;;;5074490;28;20052;-76
2022/07/28 04:38:27;;;;;;;4.18;1.77;;;12.40;99.90;;;;;;5075957;28;20078;-76
2022/07/28 04:40:54;;;;;;;4.85;1.80;;;12.50;99.90;;;;;;5074281;28;20074;-76
2022/07/28 04:43:20;;;;;;;5.05;1.75;;;12.50;99.90;;;;;;5074578;28;20052;-76
2022/07/28 04:45:47;;;;;;;3.95;1.40;;;12.60;99.90;;;;;;5074193;28;20041;-76
2022/07/28 04:48:13;;;;;;;5.13;1.60;;;12.70;99.90;;;;;;5074437;28;20048;-76
2022/07/28 04:50:40;;;;;;;4.15;1.85;;;12.70;99.90;;;;;;5074137;28;20503;-76
2022/07/28 04:53:06;;;;;;;3.83;1.60;;;12.70;99.90;;;;;;5075561;28;20050;-76
2022/07/28 04:55:33;;;;;;;3.80;2.10;;;12.80;99.90;;;;;;5074125;28;20474;-76
2022/07/28 04:57:58;;;;;;;3.72;2.55;;;12.80;99.90;;;;;;5074051;28;20047;-76
2022/07/28 05:00:24;;;;;;;5.45;1.83;;;12.90;99.90;;;;;;5075181;28;20052;-76
2022/07/28 05:02:50;;;;;;;4.47;1.92;;;13.00;99.90;;;;;;5090812;28;20079;-76
2022/07/28 05:05:16;;;;;;;3.45;2.03;;;13.00;99.90;;;;;;5075201;28;20079;-76
2022/07/28 05:07:42;;;;;;;4.45;2.15;;;13.10;99.90;;;;;;5075147;28;20064;-76
2022/07/28 05:10:11;;;;;;;5.45;2.15;;;13.20;99.90;;;;;;5075084;28;20072;-76
2022/07/28 05:12:37;;;;;;;4.50;1.88;;;13.20;99.90;;;;;;5075157;28;20048;-76
2022/07/28 05:15:04;;;;;;;5.07;1.92;;;13.30;99.90;;;;;;5075198;28;20044;-76
2022/07/28 05:17:29;;;;;;;4.25;2.03;;;13.40;99.90;;;;;;5075129;28;20028;-76
2022/07/28 05:19:55;;;;;;;4.38;2.45;;;13.40;99.90;;;;;;5074822;28;20055;-76
2022/07/28 05:22:20;;;;;;;5.38;2.40;;;13.50;99.90;;;;;;5074801;28;20056;-76
2022/07/28 05:24:46;;;;;;;8.55;2.75;;;13.60;99.90;;;;;;5073539;28;20052;-76
2022/07/28 05:27:12;;;;;;;4.68;3.05;;;13.60;99.90;;;;;;5074843;28;20586;-76
2022/07/28 05:29:40;;;;;;;8.65;3.13;;;13.70;99.90;;;;;;5073298;28;20045;-76
2022/07/28 05:32:06;;;;;;;7.97;3.15;;;13.80;99.90;;;;;;5074529;28;20422;-76
2022/07/28 05:34:32;;;;;;;7.22;3.28;;;13.90;99.90;;;;;;5074811;28;20044;-76
2022/07/28 05:37:01;;;;;;;7.35;3.08;;;14.00;99.90;;;;;;5072907;28;20078;-76
2022/07/28 05:39:27;;;;;;;8.85;2.95;;;14.00;99.90;;;;;;5074582;28;20137;-76
2022/07/28 05:41:53;;;;;;;9.15;3.42;;;14.10;99.90;;;;;;5074328;28;20442;-76
2022/07/28 05:44:19;;;;;;;6.65;2.53;;;14.10;99.90;;;;;;5074414;28;20495;-76
2022/07/28 05:46:44;;;;;;;5.95;2.97;;;14.20;99.90;;;;;;5074294;28;20048;-77
2022/07/28 05:49:10;;;;;;;6.63;3.13;;;14.30;99.90;;;;;;5073258;28;20071;-76
2022/07/28 05:51:35;;;;;;;7.18;2.58;;;14.30;99.90;;;;;;5072923;28;20094;-76
2022/07/28 05:54:01;;;;;;;5.45;2.65;;;14.40;99.90;;;;;;5074280;28;20041;-76
2022/07/28 05:56:26;;;;;;;6.53;2.40;;;14.40;99.90;;;;;;5074096;28;20044;-75
2022/07/28 05:58:52;;;;;;;7.85;2.45;;;14.50;99.90;;;;;;5073995;28;20468;-76
2022/07/28 06:01:18;;;;;;;9.60;2.92;;;14.50;99.90;;;;;;5072744;28;20048;-76
2022/07/28 06:03:43;;;;;;;4.82;2.20;;;14.50;99.90;;;;;;5073826;28;20510;-81
2022/07/28 06:06:10;;;;;;;6.07;2.50;;;14.60;99.90;;;;;;5072862;28;20483;-76
2022/07/28 06:08:35;;;;;;;12.07;2.30;;;14.60;99.90;;;;;;5072599;28;20392;-76
2022/07/28 06:11:07;;;;;;;7.82;2.20;;;14.70;99.90;;;;;;5082299;28;20065;-74
2022/07/28 06:13:34;;;;;;;6.82;2.15;;;14.70;99.90;;;;;;5075261;28;20094;-74
2022/07/28 06:16:01;;;;;;;5.43;2.08;;;14.80;99.90;;;;;;5072376;28;20123;-74
2022/07/28 06:18:27;;;;;;;7.22;1.98;;;14.80;99.90;;;;;;5072651;28;20090;-74
2022/07/28 06:20:52;;;;;;;5.53;2.03;;;14.80;99.90;;;;;;5072499;28;20045;-75
2022/07/28 06:23:20;;;;;;;10.68;2.00;;;14.90;99.90;;;;;;5073447;28;20412;-75
2022/07/28 06:25:46;;;;;;;9.52;1.90;;;14.90;99.90;;;;;;5073599;28;20048;-74
2022/07/28 06:28:13;;;;;;;6.00;1.75;;;14.90;99.90;;;;;;5073427;28;20091;-74
2022/07/28 06:30:39;;;;;;;8.40;1.85;;;14.90;99.90;;;;;;5072189;28;20080;-74
2022/07/28 06:33:06;;;;;;;6.00;1.75;;;15.00;99.90;;;;;;5073546;28;20048;-74
2022/07/28 06:35:32;;;;;;;4.97;1.63;;;15.00;99.90;;;;;;5073432;28;20049;-74
2022/07/28 06:37:58;;;;;;;5.80;1.77;;;15.00;99.90;;;;;;5073618;28;20045;-75
2022/07/28 06:40:24;;;;;;;4.97;1.50;;;15.00;99.90;;;;;;5073260;28;20124;-74
2022/07/28 06:42:50;;;;;;;5.90;1.88;;;15.00;99.90;;;;;;5073550;28;20055;-76
2022/07/28 06:45:16;;;;;;;3.88;1.40;;;15.20;99.90;;;;;;5073342;28;20056;-75
2022/07/28 06:47:42;;;;;;;4.55;1.60;;;15.50;99.90;;;;;;5071152;28;20045;-75
2022/07/28 06:50:08;;;;;;;4.43;1.30;;;15.80;99.90;;;;;;5073172;28;20040;-75
2022/07/28 06:52:35;;;;;;;4.28;1.02;;;16.00;99.90;;;;;;5073426;28;20120;-75
2022/07/28 06:55:02;;;;;;;3.63;1.40;;;16.40;99.90;;;;;;5071849;28;20119;-74
2022/07/28 06:57:28;;;;;;;3.92;1.55;;;16.70;99.90;;;;;;5073388;28;20078;-74
2022/07/28 06:59:54;;;;;;;8.00;2.28;;;16.90;99.90;;;;;;5075144;28;20044;-74
2022/07/28 07:02:20;;;;;;;4.45;1.38;;;17.10;99.90;;;;;;5080838;28;20045;-74
2022/07/28 07:04:46;;;;;;;5.80;1.20;;;17.30;99.90;;;;;;5071991;28;20135;-74
2022/07/28 07:07:12;;;;;;;7.30;1.30;;;17.40;99.90;;;;;;5073333;28;20044;-74
2022/07/28 07:09:38;;;;;;;4.32;1.40;;;17.60;99.90;;;;;;5073266;28;20044;-75
2022/07/28 07:12:04;;;;;;;2.83;1.20;;;17.40;99.90;;;;;;5072961;28;20049;-75
2022/07/28 07:14:30;;;;;;;3.97;1.10;;;17.50;99.90;;;;;;5072945;28;20388;-75
2022/07/28 07:16:56;;;;;;;2.45;1.40;;;17.70;99.90;;;;;;5073173;28;20040;-75
2022/07/28 07:19:21;;;;;;;5.90;1.40;;;17.90;99.90;;;;;;5091447;28;20173;-75
2022/07/28 07:21:47;;;;;;;2.10;1.08;;;18.10;99.90;;;;;;5091929;28;20047;-75
2022/07/28 07:24:13;;;;;;;4.13;1.08;;;18.40;99.90;;;;;;5092694;28;20048;-74
2022/07/28 07:26:39;;;;;;;6.22;1.45;;;18.60;99.90;;;;;;5091145;28;20059;-75
2022/07/28 07:29:06;;;;;;;5.88;1.65;;;18.60;99.90;;;;;;5092077;28;20051;-75
2022/07/28 07:31:32;;;;;;;4.93;1.17;;;18.70;99.90;;;;;;5084195;28;20036;-75
2022/07/28 07:33:58;;;;;;;5.03;1.10;;;19.00;99.90;;;;;;5071506;28;20044;-75
2022/07/28 07:36:24;;;;;;;6.07;1.00;;;19.20;99.90;;;;;;5071576;28;20048;-75
2022/07/28 07:38:49;;;;;;;3.92;1.00;;;19.40;99.90;;;;;;5072904;28;20041;-75
2022/07/28 07:41:16;;;;;;;3.53;0.90;;;19.50;99.90;;;;;;5084299;28;20043;-75
2022/07/28 07:43:42;;;;;;;2.75;0.80;;;19.50;99.90;;;;;;5072960;28;20040;-75
2022/07/28 07:46:07;;;;;;;4.18;0.90;;;19.40;99.90;;;;;;5081163;28;20066;-75
2022/07/28 07:48:33;;;;;;;2.85;0.90;;;19.30;99.90;;;;;;5091553;28;20510;-75
2022/07/28 07:50:59;;;;;;;2.92;0.90;;;19.20;99.90;;;;;;5091375;28;20436;-75
2022/07/28 07:53:24;;;;;;;5.72;1.30;;;19.50;99.90;;;;;;5091272;28;20480;-75
2022/07/28 07:55:50;;;;;;;3.30;0.98;;;19.80;99.90;;;;;;5092750;28;20039;-74
2022/07/28 07:58:16;;;;;;;3.72;0.80;;;19.90;99.90;;;;;;5093115;28;20067;-74
2022/07/28 08:00:42;;;;;;;3.10;0.95;;;19.90;99.90;;;;;;5089547;28;20075;-74
2022/07/28 08:03:08;;;;;;;1.85;0.90;;;20.10;99.90;;;;;;5080655;28;20044;-74
2022/07/28 08:05:33;;;;;;;3.78;2.13;;;20.20;99.90;;;;;;5091372;28;20128;-75
2022/07/28 08:07:59;;;;;;;3.35;0.70;;;20.40;99.90;;;;;;5096129;28;20075;-74
2022/07/28 08:10:25;;;;;;;6.28;0.90;;;20.50;99.90;;;;;;5089998;28;20048;-74
2022/07/28 08:12:51;;;;;;;5.28;0.75;;;20.60;99.90;;;;;;5082464;28;20467;-74
2022/07/28 08:15:16;;;;;;;3.22;1.00;;;20.50;99.90;;;;;;5074562;28;20048;-74
2022/07/28 08:17:42;;;;;;;2.22;0.80;;;20.10;99.90;;;;;;5074625;28;20056;-74
2022/07/28 08:20:08;;;;;;;5.38;1.02;;;20.40;99.90;;;;;;5074719;28;20127;-74
2022/07/28 08:22:34;;;;;;;3.72;0.98;;;20.10;99.90;;;;;;5075798;28;20048;-75
2022/07/28 08:25:00;;;;;;;4.05;1.00;;;20.50;99.90;;;;;;5075837;28;20041;-75
2022/07/28 08:27:26;;;;;;;4.00;0.75;;;20.70;99.90;;;;;;5075600;28;20457;-75
2022/07/28 08:29:51;;;;;;;2.15;0.68;;;20.80;99.90;;;;;;5078427;28;20057;-75
2022/07/28 08:32:17;;;;;;;2.83;0.80;;;20.50;99.90;;;;;;5084701;28;20040;-75
2022/07/28 08:34:43;;;;;;;3.95;1.23;;;20.50;99.90;;;;;;5075702;28;20047;-74
2022/07/28 08:37:08;;;;;;;3.97;0.85;;;20.70;99.90;;;;;;5074036;28;20075;-74
2022/07/28 08:39:34;;;;;;;3.55;0.75;;;20.70;99.90;;;;;;5075445;28;20048;-74
2022/07/28 08:42:43;;;;;;;2.47;1.02;;;20.50;99.90;;;;;;5074693;28;20137;-75
2022/07/28 08:45:10;;;;;;;3.28;0.65;;;20.90;99.90;;;;;;5074129;28;20059;-74
2022/07/28 08:47:36;;;;;;;3.58;0.95;;;20.70;99.90;;;;;;5075447;28;20044;-75
2022/07/28 08:50:03;;;;;;;3.83;0.80;;;20.80;99.90;;;;;;5078049;28;20140;-75
2022/07/28 08:52:31;;;;;;;3.85;0.80;;;20.70;99.90;;;;;;5083528;28;20495;-75
2022/07/28 08:55:00;;;;;;;4.05;1.50;;;20.50;99.90;;;;;;5094889;28;20395;-75
2022/07/28 08:57:40;;;;;;;3.60;0.77;;;20.40;99.90;;;;;;5075398;28;20059;-75
2022/07/28 09:00:07;;;;;;;3.28;0.70;;;20.80;99.90;;;;;;5075118;28;20928;-76
2022/07/28 09:02:37;;;;;;;2.42;0.90;;;20.40;99.90;;;;;;5073732;28;20053;-75
2022/07/28 09:05:03;;;;;;;1.67;0.60;;;20.50;99.90;;;;;;5074944;28;20060;-75
2022/07/28 09:07:30;;;;;;;4.03;0.73;;;20.40;99.90;;;;;;5073675;28;20048;-75
2022/07/28 09:09:56;;;;;;;10.55;0.85;;;20.90;99.90;;;;;;5074850;28;20067;-74
2022/07/28 09:12:22;;;;;;;4.70;0.80;;;21.00;99.90;;;;;;5072449;28;20121;-75
2022/07/28 09:14:48;;;;;;;1.58;0.60;;;21.00;99.90;;;;;;5073555;28;20045;-75
2022/07/28 09:17:13;;;;;;;2.83;0.70;;;21.30;99.90;;;;;;5073755;28;20040;-75
2022/07/28 09:19:39;;;;;;;6.85;1.00;;;21.40;99.90;;;;;;5074856;28;20045;-75
2022/07/28 09:22:06;;;;;;;2.95;0.93;;;21.20;99.90;;;;;;5073213;28;20049;-75
2022/07/28 09:24:36;;;;;;;2.88;0.80;;;20.90;99.90;;;;;;5074478;28;20491;-75
2022/07/28 09:27:08;;;;;;;1.20;0.60;;;20.60;99.90;;;;;;5074773;28;20082;-76
2022/07/28 09:29:36;;;;;;;4.03;1.30;;;21.10;99.90;;;;;;5073586;28;20427;-75
2022/07/28 09:32:02;;;;;;;6.38;1.08;;;21.30;99.90;;;;;;5074640;28;20066;-75
2022/07/28 09:34:39;;;;;;;2.20;0.60;;;21.10;99.90;;;;;;5074525;28;20083;-77
2022/07/28 09:37:05;;;;;;;1.95;0.82;;;21.10;99.90;;;;;;5074648;28;20049;-76
2022/07/28 09:39:32;;;;;;;2.75;0.80;;;21.30;99.90;;;;;;5074291;28;20045;-74
2022/07/28 09:41:58;;;;;;;1.20;0.50;;;21.40;99.90;;;;;;5074379;28;20061;-74
2022/07/28 09:44:26;;;;;;;3.63;0.70;;;21.50;99.90;;;;;;5072876;28;20041;-77
2022/07/28 09:46:51;;;;;;;4.32;1.05;;;21.50;99.90;;;;;;5073153;28;20506;-74
2022/07/28 09:49:17;;;;;;;2.80;0.80;;;21.60;99.90;;;;;;5074269;28;20040;-77
2022/07/28 09:52:00;;;;;;;2.60;0.52;;;21.30;99.90;;;;;;5074326;28;20046;-76
2022/07/28 09:54:25;;;;;;;3.78;0.90;;;21.20;99.90;;;;;;5073879;28;20052;-74
2022/07/28 09:56:51;;;;;;;3.65;0.80;;;21.60;99.90;;;;;;5074275;28;20052;-74
2022/07/28 09:59:17;;;;;;;4.88;3.17;;;21.30;99.90;;;;;;5072846;28;20052;-74
2022/07/28 10:01:51;;;;;;;7.15;4.90;;;21.60;99.90;;;;;;5072640;28;20097;-75
2022/07/28 10:04:29;;;;;;;6.68;1.40;;;21.50;99.90;;;;;;5073119;28;20052;-75
2022/07/28 10:07:18;;;;;;;3.60;0.73;;;21.50;99.90;;;;;;5072577;28;20052;-74
2022/07/28 10:09:58;;;;;;;4.47;0.70;;;21.50;99.90;;;;;;5074029;28;20044;-75
2022/07/28 10:12:26;;;;;;;5.07;0.90;;;21.30;99.90;;;;;;5073876;28;20128;-75
2022/07/28 10:14:54;;;;;;;1.38;0.47;;;21.60;99.90;;;;;;5073733;28;20036;-80
2022/07/28 10:17:23;;;;;;;4.20;0.47;;;21.70;99.90;;;;;;5072544;28;20120;-75
2022/07/28 10:19:50;;;;;;;3.72;0.60;;;21.60;99.90;;;;;;5073719;28;20047;-76
2022/07/28 10:22:17;;;;;;;4.95;0.73;;;21.90;99.90;;;;;;5073560;28;20068;-74
2022/07/28 10:24:45;;;;;;;1.98;0.65;;;21.80;99.60;;;;;;5073749;28;20072;-75
2022/07/28 10:27:12;;;;;;;2.40;0.80;;;21.80;99.90;;;;;;5073701;28;20048;-75
2022/07/28 10:29:42;;;;;;;3.70;0.80;;;21.20;99.90;;;;;;5081625;28;20048;-74
2022/07/28 10:32:07;;;;;;;3.67;0.68;;;21.30;99.80;;;;;;5072415;28;20041;-75
2022/07/28 10:35:01;;;;;;;4.28;0.88;;;21.30;99.90;;;;;;5073568;28;20051;-75
2022/07/28 10:37:29;;;;;;;2.00;0.50;;;21.50;99.00;;;;;;5072154;28;20076;-75
2022/07/28 10:40:02;;;;;;;2.72;0.70;;;21.70;99.90;;;;;;5073246;28;20048;-75
2022/07/28 10:42:29;;;;;;;2.30;0.45;;;21.60;99.40;;;;;;5073750;28;20154;-74
2022/07/28 10:44:56;;;;;;;3.25;0.60;;;21.40;99.90;;;;;;5073488;28;20169;-75
2022/07/28 10:47:22;;;;;;;2.13;0.63;;;21.30;99.60;;;;;;5072037;28;20049;-75
2022/07/28 10:49:48;;;;;;;2.88;0.50;;;21.30;99.90;;;;;;5073476;28;20052;-75
2022/07/28 10:52:17;;;;;;;1.30;0.52;;;20.90;99.90;;;;;;5073247;28;20488;-75
2022/07/28 10:55:06;;;;;;;2.58;0.60;;;21.40;99.90;;;;;;5073068;28;20446;-75
2022/07/28 10:57:33;;;;;;;3.67;0.50;;;21.40;99.90;;;;;;5075723;28;20487;-75
2022/07/28 11:00:26;;;;;;;1.80;0.40;;;21.10;99.90;;;;;;5080979;28;20045;-74
2022/07/28 11:03:00;;;;;;;3.15;0.40;;;20.60;98.70;;;;;;5086213;28;20055;-75
2022/07/28 11:05:39;;;;;;;1.40;0.47;;;21.10;99.90;;;;;;5092960;28;20043;-75
2022/07/28 11:08:25;;;;;;;2.40;0.60;;;21.30;99.90;;;;;;5091299;28;20114;-74
2022/07/28 11:10:52;;;;;;;2.05;0.70;;;20.80;99.80;;;;;;5091449;28;20044;-74
2022/07/28 11:13:25;;;;;;;2.85;0.70;;;20.90;99.90;;;;;;5092224;28;20551;-74
2022/07/28 11:15:52;;;;;;;0.88;0.43;;;21.00;98.30;;;;;;5091981;28;20047;-74
2022/07/28 11:18:21;;;;;;;3.90;0.57;;;21.20;99.90;;;;;;5093461;28;20039;-74
2022/07/28 11:20:50;;;;;;;2.28;0.50;;;21.20;98.80;;;;;;5092174;28;20044;-74
2022/07/28 11:23:45;;;;;;;2.17;0.60;;;20.90;99.60;;;;;;5091871;28;20147;-74
2022/07/28 11:26:20;;;;;;;2.50;0.40;;;21.20;99.70;;;;;;5093082;28;20048;-74
2022/07/28 11:29:09;;;;;;;2.60;0.65;;;21.00;99.90;;;;;;5091935;28;20056;-74
2022/07/28 11:31:45;;;;;;;5.38;0.77;;;20.60;99.90;;;;;;5092080;28;20058;-74
2022/07/28 11:34:10;;;;;;;2.33;0.45;;;21.00;99.90;;;;;;5092992;28;20043;-74
2022/07/28 11:36:55;;;;;;;4.53;1.13;;;21.00;99.90;;;;;;5097186;28;20044;-74
2022/07/28 11:39:25;;;;;;;1.67;0.50;;;21.00;99.90;;;;;;5097162;28;20036;-75
2022/07/28 11:41:51;;;;;;;3.08;0.80;;;20.90;99.90;;;;;;5097133;28;20051;-75
2022/07/28 11:44:30;;;;;;;6.45;0.60;;;21.20;99.90;;;;;;5096717;28;20047;-75
2022/07/28 11:47:16;;;;;;;2.78;0.63;;;21.30;99.90;;;;;;5096984;28;20048;-75
2022/07/28 11:49:42;;;;;;;1.02;0.30;;;21.50;99.90;;;;;;5096906;28;20036;-74
2022/07/28 11:52:10;;;;;;;3.53;0.70;;;21.80;99.90;;;;;;5095393;28;20048;-75
2022/07/28 11:54:37;;;;;;;2.30;0.40;;;21.80;99.90;;;;;;5095347;28;20036;-75
2022/07/28 11:57:03;;;;;;;2.03;0.50;;;21.50;99.90;;;;;;5096783;28;20044;-75
2022/07/28 11:59:52;;;;;;;2.40;0.57;;;21.50;99.90;;;;;;5096531;28;20039;-75
2022/07/28 12:02:20;;;;;;;2.30;0.60;;;21.50;99.90;;;;;;5095469;28;20525;-74
2022/07/28 12:04:57;;;;;;;3.05;0.63;;;21.40;99.90;;;;;;5096630;28;20044;-77
2022/07/28 12:07:32;;;;;;;2.85;0.50;;;21.10;99.90;;;;;;5095157;28;20118;-75
2022/07/28 12:09:58;;;;;;;1.42;0.40;;;21.20;99.90;;;;;;5095368;28;20040;-74
2022/07/28 12:12:26;;;;;;;3.15;0.50;;;21.40;99.90;;;;;;5096260;28;20483;-75
2022/07/28 12:14:54;;;;;;;3.90;1.15;;;21.60;99.90;;;;;;5095212;28;20481;-74
2022/07/28 12:17:21;;;;;;;3.00;0.75;;;22.00;99.90;;;;;;5095131;28;20104;-75
2022/07/28 12:19:47;;;;;;;2.20;0.50;;;21.60;99.90;;;;;;5096367;28;20039;-78
2022/07/28 12:22:13;;;;;;;3.22;0.70;;;21.70;99.90;;;;;;5096038;28;20054;-75
2022/07/28 12:24:38;;;;;;;2.50;0.55;;;21.50;99.90;;;;;;5096139;28;20052;-75
2022/07/28 12:27:04;;;;;;;2.28;0.40;;;21.30;99.90;;;;;;5095056;28;20123;-74
2022/07/28 12:29:30;;;;;;;3.72;0.50;;;21.10;99.90;;;;;;5096004;28;20399;-75
2022/07/28 12:31:59;;;;;;;2.00;0.70;;;21.20;99.90;;;;;;5095967;28;20071;-74
2022/07/28 12:34:26;;;;;;;3.65;0.57;;;20.70;99.90;;;;;;5087984;28;20047;-74
2022/07/28 12:36:57;;;;;;;3.28;0.63;;;21.00;99.90;;;;;;5075770;28;20145;-75
2022/07/28 12:39:24;;;;;;;4.03;1.13;;;21.10;99.90;;;;;;5075497;28;20495;-75
2022/07/28 12:42:00;;;;;;;4.13;0.70;;;21.40;99.90;;;;;;5075756;28;20079;-75
2022/07/28 12:44:34;;;;;;;1.88;0.45;;;21.40;99.90;;;;;;5075367;28;20537;-75
2022/07/28 12:47:00;;;;;;;2.20;0.70;;;21.30;99.90;;;;;;5074170;28;20055;-75
2022/07/28 12:49:25;;;;;;;2.63;0.40;;;20.80;99.90;;;;;;5075453;28;20123;-76
2022/07/28 12:51:51;;;;;;;3.58;0.68;;;21.30;99.90;;;;;;5075463;28;20123;-75
2022/07/28 12:54:17;;;;;;;3.42;0.52;;;21.70;99.90;;;;;;5079057;28;20048;-75